createdAt,value
2023-05-04T00:00:39.121Z,84.07
2023-05-04T00:01:39.249Z,84.17
2023-05-04T00:02:39.415Z,84.11
2023-05-04T00:03:39.191Z,84.11
2023-05-04T00:04:39.288Z,84.52
2023-05-04T00:05:39.239Z,84.52
2023-05-04T00:06:39.113Z,84.72
2023-05-04T00:07:39.198Z,84.21
2023-05-04T00:08:39.133Z,84.21
2023-05-04T00:09:39.160Z,85.14
2023-05-04T00:10:39.085Z,84.72
2023-05-04T00:11:39.110Z,84.93
2023-05-04T00:12:39.167Z,84.83
2023-05-04T00:13:38.954Z,84.93
2023-05-04T00:14:39.372Z,85.38
2023-05-04T00:15:39.096Z,84.87
2023-05-04T00:16:39.016Z,84.87
2023-05-04T00:17:39.011Z,85.28
2023-05-04T00:18:39.040Z,86.21
2023-05-04T00:19:38.942Z,85.49
2023-05-04T00:20:38.983Z,85.69
2023-05-04T00:21:38.933Z,85.38
2023-05-04T00:22:39.086Z,85.49
2023-05-04T00:23:38.890Z,85.69
2023-05-04T00:24:38.922Z,86.10
2023-05-04T00:25:39.012Z,86.00
2023-05-04T00:26:38.920Z,85.69
2023-05-04T00:27:38.858Z,86.00
2023-05-04T00:28:38.847Z,85.73
2023-05-04T00:29:38.851Z,85.83
2023-05-04T00:30:38.859Z,86.04
2023-05-04T00:31:38.999Z,85.73
2023-05-04T00:32:38.928Z,85.94
2023-05-04T00:33:38.798Z,85.63
2023-05-04T00:34:39.017Z,85.42
2023-05-04T00:35:38.994Z,85.42
2023-05-04T00:36:38.851Z,85.52
2023-05-04T00:37:38.708Z,85.69
2023-05-04T00:38:38.740Z,85.28
2023-05-04T00:39:38.898Z,85.59
2023-05-04T00:40:38.685Z,85.69
2023-05-04T00:41:38.734Z,85.59
2023-05-04T00:42:38.693Z,86.00
2023-05-04T00:43:38.815Z,85.59
2023-05-04T00:44:38.710Z,85.59
2023-05-04T00:45:38.642Z,86.00
2023-05-04T00:46:38.752Z,85.79
2023-05-04T00:47:38.808Z,85.59
2023-05-04T00:48:38.679Z,86.04
2023-05-04T00:49:38.804Z,85.79
2023-05-04T00:50:38.792Z,85.63
2023-05-04T00:51:38.814Z,85.49
2023-05-04T00:52:38.598Z,85.31
2023-05-04T00:53:38.579Z,86.41
2023-05-04T00:54:38.568Z,86.82
2023-05-04T00:55:38.571Z,86.24
2023-05-04T00:56:38.591Z,86.10
2023-05-04T00:57:38.574Z,86.10
2023-05-04T00:58:38.553Z,86.00
2023-05-04T00:59:38.623Z,85.89
2023-05-04T01:00:38.507Z,85.69
2023-05-04T01:01:38.738Z,86.21
2023-05-04T01:02:38.568Z,86.82
2023-05-04T01:03:38.603Z,86.41
2023-05-04T01:04:38.458Z,86.10
2023-05-04T01:05:38.477Z,86.41
2023-05-04T01:06:38.747Z,86.31
2023-05-04T01:07:38.962Z,86.61
2023-05-04T01:08:38.734Z,86.87
2023-05-04T01:09:38.464Z,86.87
2023-05-04T01:10:38.403Z,86.55
2023-05-04T01:11:38.568Z,87.07
2023-05-04T01:12:38.408Z,86.66
2023-05-04T01:13:38.416Z,87.17
2023-05-04T01:14:38.387Z,87.27
2023-05-04T01:15:38.561Z,87.17
2023-05-04T01:16:38.463Z,87.17
2023-05-04T01:17:38.377Z,86.76
2023-05-04T01:18:38.357Z,86.97
2023-05-04T01:19:38.340Z,86.76
2023-05-04T01:20:38.396Z,87.07
2023-05-04T01:21:38.290Z,86.87
2023-05-04T01:22:38.570Z,86.76
2023-05-04T01:23:38.313Z,86.97
2023-05-04T01:24:38.311Z,87.17
2023-05-04T01:25:38.259Z,87.27
2023-05-04T01:26:38.353Z,87.59
2023-05-04T01:27:38.289Z,87.38
2023-05-04T01:28:38.202Z,87.42
2023-05-04T01:29:38.209Z,87.21
2023-05-04T01:30:38.261Z,87.63
2023-05-04T01:31:38.225Z,87.83
2023-05-04T01:32:38.683Z,88.04
2023-05-04T01:33:38.167Z,87.63
2023-05-04T01:34:38.328Z,87.32
2023-05-04T01:35:38.262Z,87.83
2023-05-04T01:36:38.233Z,88.04
2023-05-04T01:37:38.160Z,88.24
2023-05-04T01:38:38.305Z,88.24
2023-05-04T01:39:38.196Z,88.35
2023-05-04T01:40:38.082Z,88.96
2023-05-04T01:41:38.104Z,88.96
2023-05-04T01:42:38.100Z,89.17
2023-05-04T01:43:38.058Z,88.65
2023-05-04T01:44:38.130Z,88.56
2023-05-04T01:45:38.094Z,88.56
2023-05-04T01:46:38.175Z,88.45
2023-05-04T01:47:38.339Z,88.86
2023-05-04T01:48:38.133Z,88.86
2023-05-04T01:49:38.010Z,88.96
2023-05-04T01:50:38.123Z,88.76
2023-05-04T01:51:38.205Z,88.86
2023-05-04T01:52:38.208Z,88.45
2023-05-04T01:53:37.977Z,88.35
2023-05-04T01:54:38.164Z,88.45
2023-05-04T01:55:38.061Z,88.76
2023-05-04T01:56:38.093Z,89.38
2023-05-04T01:57:37.966Z,89.28
2023-05-04T01:58:37.917Z,88.56
2023-05-04T01:59:38.080Z,89.69
2023-05-04T02:00:37.912Z,89.07
2023-05-04T02:01:37.981Z,88.86
2023-05-04T02:02:38.029Z,88.56
2023-05-04T02:03:38.013Z,88.56
2023-05-04T02:04:37.868Z,88.56
2023-05-04T02:05:38.051Z,88.45
2023-05-04T02:06:37.859Z,88.39
2023-05-04T02:07:37.893Z,88.45
2023-05-04T02:08:38.042Z,88.59
2023-05-04T02:09:37.856Z,89.62
2023-05-04T02:10:37.833Z,89.52
2023-05-04T02:11:37.858Z,89.32
2023-05-04T02:12:37.838Z,89.22
2023-05-04T02:13:37.780Z,89.42
2023-05-04T02:14:37.816Z,89.22
2023-05-04T02:15:37.819Z,89.11
2023-05-04T02:16:37.906Z,89.22
2023-05-04T02:17:37.817Z,89.42
2023-05-04T02:18:37.751Z,89.42
2023-05-04T02:19:37.774Z,89.32
2023-05-04T02:20:37.773Z,89.42
2023-05-04T02:21:37.710Z,89.52
2023-05-04T02:22:37.696Z,90.04
2023-05-04T02:23:37.871Z,89.94
2023-05-04T02:24:37.700Z,89.83
2023-05-04T02:25:37.661Z,89.83
2023-05-04T02:26:37.678Z,89.77
2023-05-04T02:27:37.724Z,89.87
2023-05-04T02:28:37.658Z,90.70
2023-05-04T02:29:37.644Z,90.19
2023-05-04T02:30:37.632Z,90.28
2023-05-04T02:31:37.923Z,90.19
2023-05-04T02:32:37.969Z,90.39
2023-05-04T02:33:37.605Z,91.01
2023-05-04T02:34:37.656Z,91.11
2023-05-04T02:35:37.587Z,90.49
2023-05-04T02:36:37.569Z,90.70
2023-05-04T02:37:37.693Z,90.91
2023-05-04T02:38:37.613Z,91.22
2023-05-04T02:39:37.533Z,90.80
2023-05-04T02:40:37.523Z,90.74
2023-05-04T02:41:37.608Z,90.95
2023-05-04T02:42:37.528Z,91.36
2023-05-04T02:43:37.573Z,91.05
2023-05-04T02:44:37.549Z,91.05
2023-05-04T02:45:37.551Z,91.05
2023-05-04T02:46:37.487Z,91.56
2023-05-04T02:47:37.506Z,91.56
2023-05-04T02:48:37.444Z,91.77
2023-05-04T02:49:37.477Z,91.36
2023-05-04T02:50:37.480Z,91.56
2023-05-04T02:51:37.580Z,91.46
2023-05-04T02:52:37.658Z,91.46
2023-05-04T02:53:37.454Z,91.67
2023-05-04T02:54:37.386Z,91.88
2023-05-04T02:55:37.415Z,92.19
2023-05-04T02:56:37.407Z,91.77
2023-05-04T02:57:37.580Z,91.56
2023-05-04T02:58:37.350Z,91.77
2023-05-04T02:59:37.379Z,92.08
2023-05-04T03:00:37.496Z,92.23
2023-05-04T03:01:37.590Z,92.44
2023-05-04T03:02:37.380Z,92.23
2023-05-04T03:03:37.482Z,92.13
2023-05-04T03:04:37.388Z,92.13
2023-05-04T03:05:37.503Z,92.33
2023-05-04T03:06:37.426Z,92.13
2023-05-04T03:07:37.386Z,92.02
2023-05-04T03:08:37.413Z,92.13
2023-05-04T03:09:37.241Z,92.23
2023-05-04T03:10:37.294Z,92.13
2023-05-04T03:11:37.402Z,92.13
2023-05-04T03:12:37.304Z,92.02
2023-05-04T03:13:37.244Z,92.02
2023-05-04T03:14:37.252Z,91.92
2023-05-04T03:15:37.362Z,92.13
2023-05-04T03:16:37.267Z,92.33
2023-05-04T03:17:37.264Z,92.44
2023-05-04T03:19:46.662Z,92.33
2023-05-04T03:20:47.661Z,92.44
2023-05-04T03:21:47.589Z,92.54
2023-05-04T03:22:47.591Z,92.64
2023-05-04T03:23:47.704Z,92.95
2023-05-04T03:24:47.558Z,92.74
2023-05-04T03:25:47.579Z,92.85
2023-05-04T03:26:47.536Z,92.85
2023-05-04T03:27:47.588Z,92.95
2023-05-04T03:28:47.536Z,93.16
2023-05-04T03:29:47.540Z,93.16
2023-05-04T03:30:47.533Z,93.37
2023-05-04T03:31:47.579Z,93.16
2023-05-04T03:32:47.519Z,93.05
2023-05-04T03:33:47.493Z,93.47
2023-05-04T03:34:47.655Z,93.47
2023-05-04T03:35:47.701Z,93.47
2023-05-04T03:36:47.607Z,93.26
2023-05-04T03:37:47.509Z,93.26
2023-05-04T03:38:47.414Z,93.37
2023-05-04T03:39:47.504Z,93.30
2023-05-04T03:40:47.641Z,93.51
2023-05-04T03:41:47.522Z,93.30
2023-05-04T03:42:47.393Z,93.41
2023-05-04T03:43:47.354Z,93.51
2023-05-04T03:44:47.330Z,93.82
2023-05-04T03:45:47.348Z,93.72
2023-05-04T03:46:47.376Z,93.93
2023-05-04T03:47:47.658Z,94.03
2023-05-04T03:48:47.518Z,93.93
2023-05-04T03:49:47.525Z,94.13
2023-05-04T03:50:47.340Z,94.13
2023-05-04T03:51:47.311Z,94.34
2023-05-04T03:52:47.268Z,94.34
2023-05-04T03:53:47.290Z,94.54
2023-05-04T03:54:47.365Z,94.54
2023-05-04T03:55:47.273Z,94.34
2023-05-04T03:56:47.210Z,94.23
2023-05-04T03:57:47.224Z,94.13
2023-05-04T03:58:47.276Z,93.93
2023-05-04T03:59:47.191Z,93.72
2023-05-04T04:00:47.239Z,93.72
2023-05-04T04:01:47.141Z,93.62
2023-05-04T04:02:47.428Z,93.72
2023-05-04T04:03:47.309Z,93.62
2023-05-04T04:04:47.517Z,93.62
2023-05-04T04:05:47.220Z,93.72
2023-05-04T04:06:48.497Z,93.82
2023-05-04T04:07:47.140Z,93.93
2023-05-04T04:08:47.192Z,93.93
2023-05-04T04:09:47.104Z,94.13
2023-05-04T04:10:47.434Z,94.44
2023-05-04T04:11:47.286Z,94.65
2023-05-04T04:12:47.276Z,94.75
2023-05-04T04:13:47.094Z,94.96
2023-05-04T04:14:47.067Z,94.85
2023-05-04T04:15:47.061Z,94.75
2023-05-04T04:16:47.104Z,94.85
2023-05-04T04:17:47.115Z,94.85
2023-05-04T04:18:47.426Z,94.85
2023-05-04T04:19:47.042Z,94.85
2023-05-04T04:20:46.996Z,94.96
2023-05-04T04:21:47.016Z,94.96
2023-05-04T04:22:47.274Z,94.75
2023-05-04T04:23:48.675Z,94.65
2023-05-04T04:24:47.031Z,94.44
2023-05-04T04:25:47.192Z,94.44
2023-05-04T04:26:47.044Z,94.23
2023-05-04T04:27:47.852Z,94.34
2023-05-04T04:28:46.950Z,94.54
2023-05-04T04:29:47.176Z,95.06
2023-05-04T04:30:46.912Z,95.27
2023-05-04T04:31:47.067Z,95.17
2023-05-04T04:32:47.065Z,95.06
2023-05-04T04:33:46.997Z,94.85
2023-05-04T04:34:47.042Z,94.75
2023-05-04T04:35:46.874Z,94.96
2023-05-04T04:36:47.002Z,94.75
2023-05-04T04:37:46.957Z,94.85
2023-05-04T04:38:46.841Z,94.96
2023-05-04T04:39:47.189Z,95.06
2023-05-04T04:40:46.805Z,94.85
2023-05-04T04:41:46.935Z,95.27
2023-05-04T04:42:46.812Z,95.17
2023-05-04T04:43:46.761Z,95.06
2023-05-04T04:44:46.795Z,95.17
2023-05-04T04:45:46.728Z,95.17
2023-05-04T04:46:47.517Z,94.96
2023-05-04T04:47:46.723Z,95.17
2023-05-04T04:48:46.740Z,95.27
2023-05-04T04:49:46.688Z,95.17
2023-05-04T04:50:46.683Z,95.06
2023-05-04T04:51:46.889Z,95.27
2023-05-04T04:52:46.749Z,95.89
2023-05-04T04:53:46.905Z,95.95
2023-05-04T04:54:46.697Z,95.84
2023-05-04T04:55:46.790Z,95.64
2023-05-04T04:56:46.803Z,95.74
2023-05-04T04:57:46.659Z,95.64
2023-05-04T04:58:46.610Z,95.84
2023-05-04T04:59:46.611Z,95.84
2023-05-04T05:00:46.653Z,95.74
2023-05-04T05:01:46.792Z,95.64
2023-05-04T05:02:46.747Z,95.43
2023-05-04T05:03:46.773Z,95.43
2023-05-04T05:04:46.575Z,95.43
2023-05-04T05:05:46.584Z,95.43
2023-05-04T05:06:46.740Z,95.43
2023-05-04T05:07:46.550Z,95.22
2023-05-04T05:08:46.507Z,95.22
2023-05-04T05:09:47.130Z,95.22
2023-05-04T05:10:46.570Z,95.12
2023-05-04T05:11:46.676Z,95.18
2023-05-04T05:12:46.555Z,95.39
2023-05-04T05:13:46.467Z,95.28
2023-05-04T05:14:46.654Z,95.07
2023-05-04T05:15:46.550Z,95.18
2023-05-04T05:16:46.556Z,95.28
2023-05-04T05:17:46.497Z,95.24
2023-05-04T05:18:46.465Z,95.14
2023-05-04T05:19:46.421Z,95.03
2023-05-04T05:20:46.427Z,94.82
2023-05-04T05:21:46.377Z,93.65
2023-05-04T05:22:46.473Z,93.85
2023-05-04T05:23:46.660Z,94.17
2023-05-04T05:24:46.566Z,94.32
2023-05-04T05:25:46.828Z,93.40
2023-05-04T05:26:46.540Z,91.75
2023-05-04T05:27:46.543Z,91.19
2023-05-04T05:28:46.557Z,91.19
2023-05-04T05:29:46.479Z,90.43
2023-05-04T05:30:46.388Z,90.73
2023-05-04T05:31:46.352Z,91.05
2023-05-04T05:32:48.397Z,90.53
2023-05-04T05:33:46.339Z,90.18
2023-05-04T05:34:46.291Z,90.39
2023-05-04T05:35:46.223Z,89.67
2023-05-04T05:36:46.331Z,88.43
2023-05-04T05:37:46.493Z,89.83
2023-05-04T05:38:47.790Z,90.03
2023-05-04T05:39:46.232Z,89.22
2023-05-04T05:40:46.193Z,89.52
2023-05-04T05:41:46.229Z,89.58
2023-05-04T05:42:46.193Z,89.17
2023-05-04T05:43:46.302Z,88.86
2023-05-04T05:44:46.236Z,88.66
2023-05-04T05:45:46.380Z,88.56
2023-05-04T05:46:46.250Z,88.31
2023-05-04T05:47:46.195Z,88.51
2023-05-04T05:48:46.131Z,88.62
2023-05-04T05:49:46.537Z,88.41
2023-05-04T05:50:46.139Z,87.65
2023-05-04T05:51:46.247Z,87.45
2023-05-04T05:52:46.095Z,87.85
2023-05-04T05:53:46.039Z,86.72
2023-05-04T05:54:46.152Z,86.89
2023-05-04T05:55:46.035Z,87.30
2023-05-04T05:56:46.097Z,87.51
2023-05-04T05:57:46.031Z,86.27
2023-05-04T05:58:46.034Z,86.65
2023-05-04T05:59:46.068Z,86.03
2023-05-04T06:00:46.218Z,86.03
2023-05-04T06:01:45.995Z,86.44
2023-05-04T06:02:46.116Z,87.05
2023-05-04T06:03:46.163Z,86.85
2023-05-04T06:04:46.002Z,84.45
2023-05-04T06:05:45.923Z,83.42
2023-05-04T06:06:46.273Z,83.42
2023-05-04T06:07:45.919Z,83.28
2023-05-04T06:08:46.121Z,83.90
2023-05-04T06:09:46.086Z,83.18
2023-05-04T06:10:46.131Z,82.77
2023-05-04T06:11:45.909Z,83.39
2023-05-04T06:12:46.334Z,84.37
2023-05-04T06:13:45.961Z,81.40
2023-05-04T06:14:46.104Z,82.93
2023-05-04T06:15:45.854Z,83.86
2023-05-04T06:16:45.879Z,83.04
2023-05-04T06:17:45.993Z,83.31
2023-05-04T06:18:46.032Z,83.00
2023-05-04T06:19:46.769Z,81.77
2023-05-04T06:20:45.997Z,81.57
2023-05-04T06:21:45.880Z,82.96
2023-05-04T06:22:45.771Z,79.99
2023-05-04T06:23:45.892Z,80.40
2023-05-04T06:24:45.816Z,79.89
2023-05-04T06:25:45.751Z,79.34
2023-05-04T06:26:45.868Z,80.46
2023-05-04T06:27:45.789Z,80.36
2023-05-04T06:28:45.753Z,80.02
2023-05-04T06:29:45.728Z,80.53
2023-05-04T06:30:45.794Z,80.94
2023-05-04T06:31:47.510Z,80.29
2023-05-04T06:32:45.701Z,79.68
2023-05-04T06:33:45.734Z,77.32
2023-05-04T06:34:45.895Z,77.01
2023-05-04T06:35:45.926Z,79.16
2023-05-04T06:36:45.967Z,78.34
2023-05-04T06:37:45.625Z,77.01
2023-05-04T06:38:45.635Z,78.55
2023-05-04T06:39:45.684Z,79.13
2023-05-04T06:40:45.786Z,80.66
2023-05-04T06:41:45.597Z,80.15
2023-05-04T06:42:45.721Z,77.90
2023-05-04T06:43:45.607Z,76.26
2023-05-04T06:44:45.645Z,78.38
2023-05-04T06:45:45.559Z,78.07
2023-05-04T06:46:45.790Z,79.70
2023-05-04T06:47:45.601Z,77.86
2023-05-04T06:48:45.529Z,73.57
2023-05-04T06:49:45.681Z,75.07
2023-05-04T06:50:45.694Z,74.97
2023-05-04T06:51:45.553Z,77.11
2023-05-04T06:52:45.628Z,78.20
2023-05-04T06:53:45.697Z,75.85
2023-05-04T06:54:45.795Z,76.26
2023-05-04T06:55:45.527Z,75.31
2023-05-04T06:56:45.426Z,75.41
2023-05-04T06:57:45.421Z,74.29
2023-05-04T06:58:45.545Z,75.51
2023-05-04T06:59:45.390Z,75.16
2023-05-04T07:00:45.528Z,75.27
2023-05-04T07:01:45.504Z,75.68
2023-05-04T07:02:45.551Z,73.10
2023-05-04T07:03:45.442Z,74.11
2023-05-04T07:04:45.528Z,73.77
2023-05-04T07:05:45.371Z,74.49
2023-05-04T07:06:45.351Z,73.43
2023-05-04T07:07:45.308Z,71.60
2023-05-04T07:08:45.335Z,73.60
2023-05-04T07:09:45.284Z,71.56
2023-05-04T07:10:45.353Z,70.95
2023-05-04T07:11:45.619Z,70.21
2023-05-04T07:12:45.538Z,70.10
2023-05-04T07:13:45.412Z,70.48
2023-05-04T07:14:45.679Z,71.09
2023-05-04T07:15:45.532Z,66.82
2023-05-04T07:16:46.370Z,69.57
2023-05-04T07:17:45.394Z,72.41
2023-05-04T07:18:45.395Z,69.33
2023-05-04T07:19:45.337Z,71.53
2023-05-04T07:20:45.204Z,70.52
2023-05-04T07:21:45.320Z,67.13
2023-05-04T07:22:45.428Z,68.55
2023-05-04T07:23:45.209Z,66.42
2023-05-04T07:24:45.250Z,65.00
2023-05-04T07:25:45.178Z,68.66
2023-05-04T07:26:45.263Z,70.45
2023-05-04T07:27:45.300Z,69.74
2023-05-04T07:28:45.089Z,68.29
2023-05-04T07:29:45.128Z,69.00
2023-05-04T07:30:45.212Z,69.47
2023-05-04T07:31:45.101Z,66.13
2023-05-04T07:32:45.308Z,65.52
2023-05-04T07:33:45.248Z,66.30
2023-05-04T07:34:46.499Z,65.69
2023-05-04T07:35:45.020Z,65.36
2023-05-04T07:36:45.208Z,62.92
2023-05-04T07:37:45.017Z,63.35
2023-05-04T07:38:45.339Z,65.96
2023-05-04T07:39:45.013Z,65.36
2023-05-04T07:40:45.169Z,60.79
2023-05-04T07:41:45.901Z,63.70
2023-05-04T07:42:45.100Z,63.81
2023-05-04T07:43:44.965Z,64.89
2023-05-04T07:44:44.959Z,61.92
2023-05-04T07:45:45.380Z,62.43
2023-05-04T07:46:45.070Z,63.24
2023-05-04T07:47:44.918Z,61.44
2023-05-04T07:48:45.190Z,66.20
2023-05-04T07:49:45.107Z,65.97
2023-05-04T07:50:45.035Z,61.19
2023-05-04T07:51:45.128Z,64.90
2023-05-04T07:52:45.017Z,62.37
2023-05-04T07:53:44.848Z,60.05
2023-05-04T07:54:44.898Z,63.25
2023-05-04T07:55:44.830Z,62.31
2023-05-04T07:56:44.828Z,59.28
2023-05-04T07:57:44.764Z,62.68
2023-05-04T07:58:44.869Z,65.08
2023-05-04T07:59:44.928Z,61.21
2023-05-04T08:00:48.310Z,60.48
2023-05-04T08:01:45.035Z,61.99
2023-05-04T08:02:44.904Z,59.44
2023-05-04T08:03:44.888Z,60.65
2023-05-04T08:04:44.792Z,59.22
2023-05-04T08:05:44.740Z,58.14
2023-05-04T08:06:45.317Z,59.67
2023-05-04T08:07:44.766Z,56.04
2023-05-04T08:08:44.873Z,60.58
2023-05-04T08:09:44.816Z,58.64
2023-05-04T08:10:44.929Z,61.16
2023-05-04T08:11:44.792Z,57.10
2023-05-04T08:12:44.769Z,56.57
2023-05-04T08:13:44.923Z,58.25
2023-05-04T08:14:44.657Z,53.72
2023-05-04T08:15:44.637Z,57.72
2023-05-04T08:16:44.765Z,57.39
2023-05-04T08:17:44.678Z,54.08
2023-05-04T08:18:44.644Z,54.68
2023-05-04T08:19:44.718Z,53.37
2023-05-04T08:20:44.741Z,53.20
2023-05-04T08:21:44.781Z,56.52
2023-05-04T08:22:44.770Z,60.12
2023-05-04T08:23:44.556Z,57.78
2023-05-04T08:24:44.772Z,55.94
2023-05-04T08:25:44.724Z,53.30
2023-05-04T08:26:49.612Z,53.37
2023-05-04T08:27:44.541Z,54.58
2023-05-04T08:28:44.504Z,55.46
2023-05-04T08:29:44.473Z,54.05
2023-05-04T08:30:44.620Z,56.06
2023-05-04T08:31:44.490Z,55.00
2023-05-04T08:32:44.525Z,54.58
2023-05-04T08:33:44.454Z,51.56
2023-05-04T08:34:44.469Z,55.38
2023-05-04T08:35:44.420Z,53.32
2023-05-04T08:36:44.454Z,52.42
2023-05-04T08:37:44.391Z,51.59
2023-05-04T08:38:44.413Z,54.77
2023-05-04T08:39:44.406Z,55.25
2023-05-04T08:40:44.386Z,51.74
2023-05-04T08:41:44.370Z,52.52
2023-05-04T08:42:44.423Z,53.12
2023-05-04T08:43:44.376Z,53.80
2023-05-04T08:44:44.361Z,50.29
2023-05-04T08:45:44.309Z,51.76
2023-05-04T08:46:44.334Z,54.47
2023-05-04T08:47:44.665Z,54.75
2023-05-04T08:48:44.316Z,55.02
2023-05-04T08:49:44.354Z,54.50
2023-05-04T08:50:44.298Z,52.77
2023-05-04T08:51:44.315Z,53.14
2023-05-04T08:52:44.398Z,51.52
2023-05-04T08:53:44.274Z,52.59
2023-05-04T08:54:44.394Z,52.39
2023-05-04T08:55:44.233Z,51.59
2023-05-04T08:56:44.354Z,52.80
2023-05-04T08:57:44.260Z,48.19
2023-05-04T08:58:44.238Z,51.12
2023-05-04T08:59:44.195Z,53.82
2023-05-04T09:00:44.312Z,51.29
2023-05-04T09:01:44.294Z,51.89
2023-05-04T09:02:44.277Z,50.57
2023-05-04T09:03:44.310Z,48.60
2023-05-04T09:04:44.167Z,49.07
2023-05-04T09:05:44.457Z,48.67
2023-05-04T09:06:44.193Z,50.07
2023-05-04T09:07:44.377Z,53.37
2023-05-04T09:08:44.234Z,48.69
2023-05-04T09:09:44.224Z,48.49
2023-05-04T09:10:44.170Z,48.61
2023-05-04T09:11:44.077Z,53.82
2023-05-04T09:12:44.189Z,51.62
2023-05-04T09:13:44.072Z,50.82
2023-05-04T09:14:44.071Z,49.34
2023-05-04T09:15:44.040Z,52.92
2023-05-04T09:16:44.130Z,50.07
2023-05-04T09:17:57.054Z,50.54
2023-05-04T09:18:44.430Z,51.12
2023-05-04T09:19:44.129Z,48.30
2023-05-04T09:20:44.290Z,50.30
2023-05-04T09:21:44.147Z,51.57
2023-05-04T09:22:44.479Z,49.43
2023-05-04T09:23:44.118Z,48.71
2023-05-04T09:24:44.043Z,46.31
2023-05-04T09:25:43.934Z,49.28
2023-05-04T09:26:43.992Z,48.07
2023-05-04T09:27:43.993Z,47.44
2023-05-04T09:28:44.042Z,45.95
2023-05-04T09:29:43.865Z,47.77
2023-05-04T09:30:44.039Z,44.46
2023-05-04T09:31:43.970Z,47.22
2023-05-04T09:32:44.049Z,54.57
2023-05-04T09:33:43.845Z,46.76
2023-05-04T09:34:43.856Z,47.13
2023-05-04T09:35:43.915Z,45.55
2023-05-04T09:36:43.924Z,51.87
2023-05-04T09:37:43.914Z,49.30
2023-05-04T09:38:43.823Z,49.63
2023-05-04T09:39:43.862Z,42.37
2023-05-04T09:40:43.866Z,47.44
2023-05-04T09:41:43.868Z,46.95
2023-05-04T09:42:43.791Z,47.10
2023-05-04T09:43:44.000Z,46.48
2023-05-04T09:44:43.787Z,43.78
2023-05-04T09:45:43.845Z,42.79
2023-05-04T09:46:43.983Z,43.48
2023-05-04T09:47:43.724Z,45.37
2023-05-04T09:48:43.718Z,45.25
2023-05-04T09:49:43.817Z,42.07
2023-05-04T09:50:43.991Z,44.15
2023-05-04T09:51:43.815Z,45.82
2023-05-04T09:52:43.711Z,44.60
2023-05-04T09:53:43.818Z,41.73
2023-05-04T09:54:43.951Z,44.83
2023-05-04T09:55:43.849Z,43.78
2023-05-04T09:56:43.671Z,44.27
2023-05-04T09:57:43.689Z,46.14
2023-05-04T09:58:43.744Z,47.41
2023-05-04T09:59:43.636Z,45.50
2023-05-04T10:00:43.900Z,43.40
2023-05-04T10:01:44.889Z,42.86
2023-05-04T10:02:44.099Z,42.33
2023-05-04T10:03:43.629Z,41.66
2023-05-04T10:04:43.623Z,43.21
2023-05-04T10:05:43.615Z,48.36
2023-05-04T10:06:43.836Z,43.98
2023-05-04T10:07:43.587Z,43.71
2023-05-04T10:08:43.590Z,48.44
2023-05-04T10:09:43.755Z,41.63
2023-05-04T10:10:43.667Z,42.15
2023-05-04T10:11:44.038Z,45.89
2023-05-04T10:12:43.591Z,45.45
2023-05-04T10:13:43.589Z,44.51
2023-05-04T10:14:43.465Z,41.33
2023-05-04T10:15:43.568Z,38.22
2023-05-04T10:16:43.499Z,42.21
2023-05-04T10:17:43.513Z,42.61
2023-05-04T10:18:43.575Z,44.97
2023-05-04T10:19:43.567Z,41.87
2023-05-04T10:20:43.419Z,42.66
2023-05-04T10:21:43.493Z,41.39
2023-05-04T10:22:43.445Z,41.87
2023-05-04T10:23:43.486Z,44.25
2023-05-04T10:24:43.411Z,42.23
2023-05-04T10:25:43.410Z,40.88
2023-05-04T10:26:43.614Z,41.67
2023-05-04T10:27:43.480Z,45.05
2023-05-04T10:28:43.339Z,45.03
2023-05-04T10:29:43.640Z,44.98
2023-05-04T10:30:43.535Z,40.01
2023-05-04T10:31:43.763Z,43.16
2023-05-04T10:32:43.337Z,37.79
2023-05-04T10:33:43.426Z,39.79
2023-05-04T10:34:43.373Z,39.71
2023-05-04T10:35:43.822Z,39.12
2023-05-04T10:36:43.425Z,37.83
2023-05-04T10:37:43.263Z,37.17
2023-05-04T10:38:43.425Z,38.17
2023-05-04T10:39:43.263Z,40.66
2023-05-04T10:40:43.288Z,41.52
2023-05-04T10:41:43.251Z,35.69
2023-05-04T10:42:43.336Z,39.69
2023-05-04T10:43:43.238Z,45.30
2023-05-04T10:44:43.186Z,39.34
2023-05-04T10:45:43.383Z,39.57
2023-05-04T10:46:43.286Z,41.28
2023-05-04T10:47:43.216Z,41.02
2023-05-04T10:48:43.207Z,44.77
2023-05-04T10:49:43.258Z,41.38
2023-05-04T10:50:43.174Z,40.98
2023-05-04T10:51:49.460Z,41.44
2023-05-04T10:52:43.116Z,43.10
2023-05-04T10:53:43.173Z,37.65
2023-05-04T10:54:43.158Z,40.80
2023-05-04T10:55:43.143Z,43.85
2023-05-04T10:56:43.139Z,40.09
2023-05-04T10:57:43.134Z,44.01
2023-05-04T10:58:43.258Z,40.64
2023-05-04T10:59:43.137Z,39.18
2023-05-04T11:00:43.191Z,39.08
2023-05-04T11:01:43.142Z,40.94
2023-05-04T11:02:43.276Z,36.23
2023-05-04T11:03:43.259Z,41.47
2023-05-04T11:04:43.036Z,47.80
2023-05-04T11:05:43.386Z,42.03
2023-05-04T11:06:43.242Z,45.08
2023-05-04T11:07:43.042Z,39.83
2023-05-04T11:08:43.294Z,41.83
2023-05-04T11:09:43.050Z,37.07
2023-05-04T11:10:43.150Z,36.60
2023-05-04T11:11:43.008Z,41.16
2023-05-04T11:12:43.297Z,43.24
2023-05-04T11:13:42.964Z,37.21
2023-05-04T11:14:43.287Z,44.25
2023-05-04T11:15:42.962Z,41.63
2023-05-04T11:16:43.064Z,39.31
2023-05-04T11:17:43.268Z,38.15
2023-05-04T11:18:43.233Z,38.46
2023-05-04T11:19:43.095Z,39.17
2023-05-04T11:20:43.007Z,44.15
2023-05-04T11:21:42.951Z,37.27
2023-05-04T11:22:42.849Z,35.69
2023-05-04T11:23:42.846Z,34.63
2023-05-04T11:24:43.032Z,37.04
2023-05-04T11:25:42.864Z,37.23
2023-05-04T11:26:42.883Z,38.71
2023-05-04T11:27:43.172Z,39.69
2023-05-04T11:28:42.850Z,37.62
2023-05-04T11:29:42.895Z,40.14
2023-05-04T11:30:42.852Z,41.44
2023-05-04T11:31:43.001Z,39.92
2023-05-04T11:32:42.888Z,38.95
2023-05-04T11:33:43.072Z,39.61
2023-05-04T11:34:42.844Z,38.12
2023-05-04T11:35:42.818Z,38.78
2023-05-04T11:36:42.962Z,33.52
2023-05-04T11:37:42.766Z,34.86
2023-05-04T11:38:42.945Z,34.86
2023-05-04T11:39:42.776Z,37.32
2023-05-04T11:40:43.007Z,36.33
2023-05-04T11:41:42.926Z,36.19
2023-05-04T11:42:42.886Z,39.09
2023-05-04T11:43:42.866Z,40.54
2023-05-04T11:44:42.803Z,45.79
2023-05-04T11:45:42.700Z,40.78
2023-05-04T11:46:42.759Z,38.38
2023-05-04T11:47:42.695Z,41.83
2023-05-04T11:48:42.936Z,38.05
2023-05-04T11:49:42.730Z,39.15
2023-05-04T11:50:42.723Z,36.69
2023-05-04T11:51:42.655Z,35.72
2023-05-04T11:52:42.645Z,36.63
2023-05-04T11:53:42.734Z,39.07
2023-05-04T11:54:42.851Z,34.88
2023-05-04T11:55:42.678Z,33.59
2023-05-04T11:56:42.671Z,35.77
2023-05-04T11:57:42.761Z,33.12
2023-05-04T11:58:42.599Z,38.10
2023-05-04T11:59:42.649Z,40.66
2023-05-04T12:00:42.585Z,39.43
2023-05-04T12:01:42.862Z,39.02
2023-05-04T12:02:42.683Z,41.67
2023-05-04T12:03:52.324Z,37.04
2023-05-04T12:04:42.504Z,37.93
2023-05-04T12:05:42.524Z,36.58
2023-05-04T12:06:42.557Z,37.81
2023-05-04T12:07:42.530Z,38.60
2023-05-04T12:08:42.661Z,40.44
2023-05-04T12:09:42.495Z,35.88
2023-05-04T12:10:42.419Z,39.06
2023-05-04T12:11:42.531Z,34.91
2023-05-04T12:12:42.592Z,40.94
2023-05-04T12:13:42.531Z,38.44
2023-05-04T12:14:42.386Z,38.53
2023-05-04T12:15:42.374Z,35.24
2023-05-04T12:16:42.474Z,35.55
2023-05-04T12:17:42.420Z,34.78
2023-05-04T12:18:42.628Z,35.75
2023-05-04T12:19:42.355Z,36.05
2023-05-04T12:20:42.404Z,38.34
2023-05-04T12:21:42.336Z,34.38
2023-05-04T12:22:42.514Z,40.92
2023-05-04T12:23:42.357Z,40.44
2023-05-04T12:24:42.484Z,37.87
2023-05-04T12:25:54.843Z,34.38
2023-05-04T12:26:42.274Z,37.49
2023-05-04T12:27:42.527Z,35.82
2023-05-04T12:28:42.280Z,40.68
2023-05-04T12:29:42.337Z,37.70
2023-05-04T12:30:42.477Z,35.72
2023-05-04T12:31:42.361Z,36.32
2023-05-04T12:32:42.522Z,38.98
2023-05-04T12:33:42.307Z,35.11
2023-05-04T12:34:42.227Z,37.85
2023-05-04T12:35:42.228Z,36.54
2023-05-04T12:36:42.392Z,31.97
2023-05-04T12:37:42.180Z,34.17
2023-05-04T12:38:42.182Z,37.27
2023-05-04T12:39:42.422Z,35.29
2023-05-04T12:40:42.307Z,32.93
2023-05-04T12:41:42.510Z,33.82
2023-05-04T12:42:42.146Z,37.96
2023-05-04T12:43:42.302Z,35.41
2023-05-04T12:44:42.250Z,38.17
2023-05-04T12:45:42.268Z,34.52
2023-05-04T12:46:42.276Z,31.74
2023-05-04T12:47:42.093Z,32.24
2023-05-04T12:48:42.111Z,35.14
2023-05-04T12:49:42.190Z,36.22
2023-05-04T12:50:42.193Z,37.21
2023-05-04T12:51:42.051Z,38.00
2023-05-04T12:52:42.311Z,34.33
2023-05-04T12:53:42.069Z,34.36